Time;durP1;ratioP1;P1;durP2;ratioP2;P2;SDS_P1;SDS_P2;PMS_P1;PMS_P2;Temp;Humidity;BMP_temperature;BMP_pressure;BME280_temperature;BME280_humidity;BME280_pressure;Samples;Min_cycle;Max_cycle;Signal;HPM_P1;HPM_P2
2023/10/15 00:02:00;;;;;;;11.40;5.30;;;;;;;;;;113765;1231;21952;-87
2023/10/15 00:04:37;;;;;;;10.70;5.30;;;;;;;;;;113783;1231;22254;-86
2023/10/15 00:11:18;;;;;;;13.20;5.50;;;;;;;;;;113556;1238;23614;-86
2023/10/15 00:14:13;;;;;;;12.80;5.20;;;;;;;;;;112710;1243;22728;-85
2023/10/15 00:16:52;;;;;;;10.60;5.20;;;;;;;;;;112861;1242;22726;-90
2023/10/15 00:19:29;;;;;;;16.10;5.80;;;;;;;;;;112928;1243;21965;-89
2023/10/15 00:22:37;;;;;;;13.20;5.00;;;;;;;;;;112883;1243;21934;-89
2023/10/15 00:25:19;;;;;;;12.90;4.20;;;;;;;;;;112949;1243;21981;-86
2023/10/15 00:28:17;;;;;;;14.70;5.20;;;;;;;;;;112944;1243;21974;-90
2023/10/15 00:31:06;;;;;;;12.80;5.00;;;;;;;;;;113010;1239;21995;-87
2023/10/15 00:34:03;;;;;;;;;;;;;;;;;;;;;
2023/10/15 00:37:20;;;;;;;;;;;;;;;;;;;;;
2023/10/15 00:40:52;;;;;;;;;;;;;;;;;;;;;
2023/10/15 00:43:57;;;;;;;;;;;;;;;;;;;;;
2023/10/15 00:47:08;;;;;;;10.50;4.50;;;;;;;;;;112536;1243;22610;-89
2023/10/15 00:51:07;;;;;;;17.60;4.60;;;;;;;;;;112652;1247;21962;-87
2023/10/15 00:53:55;;;;;;;11.30;4.20;;;;;;;;;;112453;1248;22995;-88
2023/10/15 00:56:41;;;;;;;11.30;4.90;;;;;;;;;;112077;1248;21982;-86
2023/10/15 01:00:37;;;;;;;11.80;4.50;;;;;;;;;;112341;1248;22022;-88
2023/10/15 01:03:36;;;;;;;7.30;3.50;;;;;;;;;;111878;1252;22286;-91
2023/10/15 01:07:04;;;;;;;12.90;4.00;;;;;;;;;;111790;1252;23618;-85
2023/10/15 01:09:42;;;;;;;10.90;4.80;;;;;;;;;;112036;1246;21956;-86
2023/10/15 01:12:54;;;;;;;10.70;4.20;;;;;;;;;;111862;1249;21993;-87
2023/10/15 01:15:50;;;;;;;8.80;4.00;;;;;;;;;;111926;1249;21985;-86
2023/10/15 01:18:48;;;;;;;12.50;5.00;;;;;;;;;;111937;1249;21916;-87
2023/10/15 01:21:52;;;;;;;10.40;4.40;;;;;;;;;;112302;1244;21958;-85
2023/10/15 01:25:00;;;;;;;10.10;4.30;;;;;;;;;;112668;1245;22219;-90
2023/10/15 01:27:51;;;;;;;12.70;5.40;;;;;;;;;;113475;1237;21953;-90
2023/10/15 01:31:00;;;;;;;;;;;;;;;;;;;;;
2023/10/15 01:34:18;;;;;;;13.90;4.80;;;;;;;;;;113467;1238;21987;-89
2023/10/15 01:38:05;;;;;;;12.20;4.30;;;;;;;;;;113671;1238;23148;-89
2023/10/15 01:53:58;;;;;;;9.20;3.70;;;;;;;;;;114049;1241;21984;-89
2023/10/15 01:57:26;;;;;;;7.50;3.00;;;;;;;;;;113169;1240;21977;-86
2023/10/15 02:00:33;;;;;;;10.60;4.00;;;;;;;;;;112997;1240;21949;-86
2023/10/15 02:03:43;;;;;;;10.00;3.60;;;;;;;;;;112899;1240;22699;-87
2023/10/15 02:07:07;;;;;;;8.50;3.00;;;;;;;;;;112605;1244;21945;-91
2023/10/15 02:10:31;;;;;;;12.60;3.30;;;;;;;;;;113049;1244;21941;-90
2023/10/15 02:14:41;;;;;;;9.30;3.30;;;;;;;;;;114724;1232;22158;-89
2023/10/15 02:17:46;;;;;;;;;;;;;;;;;;;;;
2023/10/15 02:24:46;;;;;;;11.80;3.50;;;;;;;;;;113075;1243;21922;-87
2023/10/15 02:33:25;;;;;;;7.40;2.70;;;;;;;;;;113261;1248;21976;-88
2023/10/15 02:36:25;;;;;;;7.90;4.00;;;;;;;;;;112040;1252;22978;-90
2023/10/15 02:39:59;;;;;;;11.50;3.50;;;;;;;;;;111740;1253;21977;-88
2023/10/15 02:43:06;;;;;;;8.20;3.10;;;;;;;;;;111451;1255;22024;-88
2023/10/15 02:45:51;;;;;;;7.50;2.70;;;;;;;;;;111363;1255;21981;-88
2023/10/15 02:48:47;;;;;;;6.90;3.20;;;;;;;;;;111352;1255;24321;-88
2023/10/15 02:51:28;;;;;;;9.80;3.50;;;;;;;;;;110919;1260;22058;-86
2023/10/15 02:57:15;;;;;;;6.70;3.10;;;;;;;;;;110567;1260;22295;-89
2023/10/15 02:59:54;;;;;;;11.60;2.80;;;;;;;;;;110944;1260;23072;-86
2023/10/15 03:02:43;;;;;;;8.40;3.00;;;;;;;;;;111595;1251;23005;-85
2023/10/15 03:05:38;;;;;;;7.50;2.80;;;;;;;;;;111733;1251;23704;-87
2023/10/15 03:08:26;;;;;;;5.60;2.60;;;;;;;;;;112050;1244;23671;-86
2023/10/15 03:11:32;;;;;;;11.50;3.10;;;;;;;;;;113287;1239;21960;-85
2023/10/15 03:14:21;;;;;;;6.70;2.70;;;;;;;;;;113573;1232;21953;-86
2023/10/15 03:16:56;;;;;;;11.20;3.20;;;;;;;;;;113822;1232;22070;-86
2023/10/15 03:19:46;;;;;;;9.10;2.80;;;;;;;;;;113843;1232;21921;-87
2023/10/15 03:22:32;;;;;;;7.50;2.70;;;;;;;;;;113795;1232;21923;-87
2023/10/15 03:25:40;;;;;;;10.60;3.30;;;;;;;;;;113743;1232;21979;-87
2023/10/15 03:28:23;;;;;;;9.00;3.40;;;;;;;;;;113870;1232;23675;-85
2023/10/15 03:31:47;;;;;;;;;;;;;;;;;;;;;
2023/10/15 03:35:16;;;;;;;7.20;2.90;;;;;;;;;;115308;1228;21948;-90
2023/10/15 03:43:59;;;;;;;10.90;3.10;;;;;;;;;;113500;1241;24421;-86
2023/10/15 03:48:28;;;;;;;7.90;2.20;;;;;;;;;;113398;1241;21945;-90
2023/10/15 04:18:09;;;;;;;7.60;2.90;;;;;;;;;;109001;1281;545096;-91
2023/10/15 04:21:52;;;;;;;;;;;;;;;;;;;;;
2023/10/15 04:26:02;;;;;;;9.00;2.80;;;;;;;;;;111270;1267;22050;-91
2023/10/15 04:34:35;;;;;;;;;;;;;;;;;;;;;
2023/10/15 04:41:41;;;;;;;12.20;3.30;;;;;;;;;;109760;1272;23612;-85
2023/10/15 04:48:35;;;;;;;9.00;2.90;;;;;;;;;;109179;1277;23644;-90
2023/10/15 04:55:39;;;;;;;;;;;;;;;;;;;;;
2023/10/15 04:58:59;;;;;;;11.80;4.20;;;;;;;;;;109002;1280;22747;-87
2023/10/15 05:03:39;;;;;;;10.30;4.70;;;;;;;;;;108922;1286;22006;-88
2023/10/15 05:07:05;;;;;;;11.80;4.00;;;;;;;;;;108886;1286;21968;-87
2023/10/15 05:10:08;;;;;;;14.30;5.00;;;;;;;;;;108613;1285;22814;-88
2023/10/15 05:18:51;;;;;;;;;;;;;;;;;;;;;
2023/10/15 05:23:10;;;;;;;12.20;3.90;;;;;;;46.96;8.23;100093.28;111508;1258;22115;-91
2023/10/15 05:26:59;;;;;;;12.10;3.80;;;;;;;47.30;7.87;100097.98;111074;1268;21987;-91
2023/10/15 05:39:15;;;;;;;13.60;3.80;;;;;;;46.96;7.98;100109.27;109366;1279;21997;-90
2023/10/15 05:42:48;;;;;;;8.30;3.90;;;;;;;46.93;8.05;100117.45;108941;1285;22015;-90
2023/10/15 05:46:02;;;;;;;10.60;4.30;;;;;;;46.94;8.10;100120.74;108897;1286;22242;-88
2023/10/15 05:49:33;;;;;;;9.80;4.00;;;;;;;46.97;7.90;100117.79;108299;1290;22014;-89
2023/10/15 05:52:26;;;;;;;10.00;3.20;;;;;;;47.09;8.07;100130.89;108444;1292;21985;-88
2023/10/15 05:55:11;;;;;;;14.20;4.30;;;;;;;47.17;8.09;100131.56;108085;1292;22002;-91
2023/10/15 05:57:48;;;;;;;11.30;4.10;;;;;;;47.05;8.12;100134.83;108342;1294;22009;-89
2023/10/15 06:00:52;;;;;;;10.30;4.50;;;;;;;47.08;8.01;100139.52;108129;1294;22016;-89
2023/10/15 06:03:26;;;;;;;9.90;4.10;;;;;;;47.12;7.98;100144.10;108584;1288;23752;-89
2023/10/15 06:17:00;;;;;;;13.90;4.90;;;;;;;45.68;8.79;100153.44;108879;1282;547813;-90
2023/10/15 06:19:36;;;;;;;10.40;4.30;;;;;;;46.92;8.09;100156.39;108599;1258;3309944;-88
2023/10/15 06:22:07;;;;;;;13.30;4.90;;;;;;;47.49;7.90;100160.28;111330;1258;21974;-88
2023/10/15 06:24:46;;;;;;;10.30;4.50;;;;;;;47.56;7.83;100157.70;111265;1258;22039;-88
2023/10/15 06:27:19;;;;;;;10.80;4.90;;;;;;;47.51;7.83;100163.76;111173;1258;21964;-89
2023/10/15 06:29:59;;;;;;;15.70;6.90;;;;;;;47.44;8.08;100166.69;111102;1258;21970;-89
2023/10/15 06:32:32;;;;;;;16.90;6.60;;;;;;;47.59;7.89;100167.91;110306;1266;21990;-88
2023/10/15 06:35:18;;;;;;;15.40;7.50;;;;;;;47.62;7.74;100171.56;109894;1271;22034;-89
2023/10/15 06:37:58;;;;;;;14.30;5.70;;;;;;;47.76;7.83;100171.38;109480;1276;22027;-90
2023/10/15 06:40:46;;;;;;;18.60;8.40;;;;;;;47.75;7.82;100174.64;109469;1276;21972;-90
2023/10/15 06:43:24;;;;;;;18.10;10.00;;;;;;;47.84;7.55;100176.44;109698;1276;22204;-89
2023/10/15 06:46:23;;;;;;;16.10;6.90;;;;;;;47.93;7.90;100185.09;109584;1276;24304;-88
2023/10/15 06:49:03;;;;;;;14.40;5.00;;;;;;;48.05;7.78;100183.77;109410;1278;22387;-88
2023/10/15 06:52:07;;;;;;;14.80;5.70;;;;;;;48.24;7.65;100188.89;109623;1274;23924;-88
2023/10/15 06:55:05;;;;;;;10.70;4.10;;;;;;;48.53;7.64;100195.85;110271;1268;22040;-88
2023/10/15 06:57:59;;;;;;;14.10;4.50;;;;;;;48.23;7.58;100206.08;110816;1252;22032;-88
2023/10/15 07:04:28;;;;;;;8.00;3.10;;;;;;;48.46;7.50;100206.13;110091;1271;22176;-86
2023/10/15 07:07:12;;;;;;;12.90;3.40;;;;;;;48.25;7.50;100209.67;109681;1271;22039;-85
2023/10/15 07:10:21;;;;;;;16.20;4.40;;;;;;;48.02;7.60;100208.73;109731;1271;22333;-86
2023/10/15 07:13:13;;;;;;;11.00;4.10;;;;;;;48.03;7.73;100210.54;109744;1271;21939;-85
2023/10/15 07:15:49;;;;;;;8.70;3.40;;;;;;;47.90;7.66;100221.59;109644;1271;22015;-86
2023/10/15 07:18:32;;;;;;;11.40;3.70;;;;;;;47.89;7.67;100217.92;109610;1271;22453;-88
2023/10/15 07:21:11;;;;;;;16.90;4.90;;;;;;;47.87;7.69;100211.73;110156;1268;22745;-86
2023/10/15 07:23:42;;;;;;;8.70;3.70;;;;;;;47.78;7.70;100220.59;109926;1264;22540;-84
2023/10/15 07:26:31;;;;;;;17.40;4.10;;;;;;;47.63;7.72;100223.84;109961;1268;23550;-83
2023/10/15 07:29:11;;;;;;;10.70;2.70;;;;;;;47.64;7.59;100224.04;109380;1273;22740;-83
2023/10/15 07:31:42;;;;;;;12.70;3.30;;;;;;;47.79;7.66;100225.66;109007;1280;22107;-80
2023/10/15 07:34:13;;;;;;;11.30;3.40;;;;;;;47.81;7.75;100223.24;108905;1280;21991;-85
2023/10/15 07:36:58;;;;;;;10.60;4.00;;;;;;;47.86;7.60;100222.48;108809;1276;21987;-85
2023/10/15 07:39:50;;;;;;;19.70;6.30;;;;;;;48.10;7.54;100220.82;108913;1280;23866;-82
2023/10/15 07:42:35;;;;;;;16.30;5.00;;;;;;;48.10;7.68;100224.20;109408;1272;23602;-82
2023/10/15 07:45:20;;;;;;;12.90;4.30;;;;;;;48.07;7.51;100223.33;109774;1272;22757;-88
2023/10/15 07:47:51;;;;;;;;;;;;;;;48.35;7.41;100219.28;109999;1268;21968;-87
2023/10/15 07:50:40;;;;;;;9.80;4.00;;;;;;;48.43;7.30;100211.68;110544;1263;21974;-88
2023/10/15 07:53:19;;;;;;;13.50;4.30;;;;;;;48.08;7.42;100212.46;110726;1263;22118;-81
2023/10/15 07:56:01;;;;;;;8.20;3.20;;;;;;;47.89;7.36;100214.36;110695;1261;23744;-82
2023/10/15 07:58:35;;;;;;;13.50;4.40;;;;;;;48.54;7.29;100211.79;110865;1261;21978;-81
2023/10/15 08:01:08;;;;;;;14.40;5.30;;;;;;;48.72;7.18;100213.77;110556;1261;21972;-83
2023/10/15 08:03:49;;;;;;;14.90;5.20;;;;;;;48.43;7.20;100215.27;110579;1260;23589;-82
2023/10/15 08:06:23;;;;;;;14.10;6.20;;;;;;;48.41;7.13;100209.17;110732;1261;23055;-80
2023/10/15 08:08:55;;;;;;;7.10;3.30;;;;;;;48.57;7.28;100217.36;110147;1268;23709;-82
2023/10/15 08:11:28;;;;;;;8.40;3.50;;;;;;;48.61;7.19;100217.96;110173;1267;23699;-84
2023/10/15 08:14:09;;;;;;;10.30;3.60;;;;;;;48.69;7.14;100214.63;110187;1263;24321;-81
2023/10/15 08:16:43;;;;;;;14.10;3.90;;;;;;;49.01;7.13;100216.61;110687;1264;21980;-82
2023/10/15 08:19:17;;;;;;;12.90;4.40;;;;;;;49.16;7.00;100215.90;110400;1264;21966;-82
2023/10/15 08:21:59;;;;;;;11.60;4.00;;;;;;;49.36;6.91;100212.48;110433;1259;21981;-84
2023/10/15 08:24:30;;;;;;;8.60;2.90;;;;;;;49.16;7.11;100218.07;110583;1263;21965;-84
2023/10/15 08:31:06;;;;;;;10.50;3.40;;;;;;;49.94;6.56;100213.65;110420;1267;21975;-88
2023/10/15 08:34:01;;;;;;;12.40;4.10;;;;;;;49.65;6.78;100220.04;109900;1266;22135;-85
2023/10/15 08:36:32;;;;;;;8.90;3.60;;;;;;;49.40;6.93;100226.02;109537;1274;22145;-86
2023/10/15 08:39:11;;;;;;;10.50;3.90;;;;;;;49.32;6.79;100223.52;108929;1278;23046;-85
2023/10/15 08:41:55;;;;;;;9.50;4.00;;;;;;;49.57;6.85;100230.02;108921;1278;21987;-85
2023/10/15 08:44:27;;;;;;;10.80;4.40;;;;;;;49.48;6.71;100228.12;109123;1278;22058;-85
2023/10/15 08:47:04;;;;;;;11.40;4.70;;;;;;;49.38;6.83;100231.70;108928;1278;21993;-84
2023/10/15 08:49:49;;;;;;;10.10;4.90;;;;;;;49.57;6.81;100233.61;109120;1279;22005;-85
2023/10/15 08:52:37;;;;;;;10.10;4.10;;;;;;;49.66;6.70;100229.98;108955;1278;23732;-86
2023/10/15 08:55:09;;;;;;;14.00;4.00;;;;;;;49.48;6.86;100233.64;108942;1278;22017;-85
2023/10/15 08:57:45;;;;;;;9.90;3.70;;;;;;;49.45;6.76;100242.61;109130;1274;21948;-85
2023/10/15 09:00:30;;;;;;;10.10;3.30;;;;;;;49.40;6.85;100240.30;109379;1262;21994;-86
2023/10/15 09:03:04;;;;;;;10.70;3.30;;;;;;;49.60;6.77;100246.96;109749;1267;22208;-85
2023/10/15 09:05:40;;;;;;;7.70;3.20;;;;;;;49.36;6.78;100252.02;109832;1267;23628;-85
2023/10/15 09:08:13;;;;;;;13.70;4.00;;;;;;;49.48;6.74;100250.97;110746;1257;21957;-86
2023/10/15 09:10:52;;;;;;;7.90;2.70;;;;;;;49.34;6.79;100253.23;111028;1257;23700;-85
2023/10/15 09:13:36;;;;;;;8.90;3.50;;;;;;;49.13;6.89;100253.69;110044;1264;21968;-85
2023/10/15 09:16:26;;;;;;;9.60;3.00;;;;;;;49.30;6.82;100247.40;110079;1262;21968;-85
2023/10/15 09:19:12;;;;;;;10.70;4.60;;;;;;;49.24;7.03;100248.63;110100;1264;21950;-85
2023/10/15 09:21:48;;;;;;;14.10;5.10;;;;;;;49.06;7.09;100246.91;110384;1259;23016;-85
2023/10/15 09:24:23;;;;;;;14.80;5.00;;;;;;;48.91;6.99;100249.34;110171;1267;24384;-85
2023/10/15 09:26:59;;;;;;;10.00;6.00;;;;;;;49.20;7.01;100238.69;109980;1266;23637;-85
2023/10/15 09:29:45;;;;;;;11.30;5.60;;;;;;;49.66;7.01;100241.23;110001;1266;21983;-86
2023/10/15 09:32:26;;;;;;;9.70;4.40;;;;;;;49.87;6.91;100242.84;110489;1261;22002;-86
2023/10/15 09:35:01;;;;;;;9.50;4.00;;;;;;;50.53;6.75;100233.83;110761;1261;21978;-86
2023/10/15 09:37:46;;;;;;;12.50;3.10;;;;;;;50.91;6.43;100233.02;110825;1261;23092;-87
2023/10/15 09:40:23;;;;;;;10.50;3.50;;;;;;;50.88;6.41;100238.14;110727;1261;21985;-87
2023/10/15 09:43:04;;;;;;;8.80;3.60;;;;;;;51.00;6.50;100238.13;110803;1257;23591;-86
2023/10/15 09:45:41;;;;;;;10.50;4.10;;;;;;;51.49;6.41;100236.21;111181;1257;21950;-88
2023/10/15 09:48:12;;;;;;;9.70;4.00;;;;;;;51.65;6.25;100230.05;110833;1262;24355;-87
2023/10/15 09:50:47;;;;;;;11.40;5.40;;;;;;;50.98;6.09;100236.05;110761;1262;21971;-88
2023/10/15 09:53:29;;;;;;;9.40;3.20;;;;;;;50.72;6.33;100236.05;110305;1266;22845;-85
2023/10/15 09:56:09;;;;;;;9.30;3.30;;;;;;;50.73;6.38;100236.50;110192;1266;21991;-88
2023/10/15 09:58:44;;;;;;;9.20;3.70;;;;;;;50.79;6.32;100237.56;110598;1266;22059;-88
2023/10/15 10:01:29;;;;;;;9.60;4.10;;;;;;;50.93;6.30;100230.83;110424;1265;22320;-87
2023/10/15 10:04:56;;;;;;;8.10;3.50;;;;;;;50.79;6.27;100227.46;110362;1266;21967;-87
2023/10/15 10:08:41;;;;;;;9.20;4.10;;;;;;;50.73;6.32;100227.33;110267;1270;22451;-88
2023/10/15 10:12:17;;;;;;;8.90;4.20;;;;;;;51.00;6.15;100220.05;110190;1275;21898;-90
2023/10/15 10:15:27;;;;;;;6.90;3.60;;;;;;;51.00;6.14;100219.73;110474;1271;21969;-89
2023/10/15 10:18:18;;;;;;;10.40;3.90;;;;;;;50.52;6.15;100222.69;109920;1275;22011;-86
2023/10/15 10:21:19;;;;;;;7.60;3.20;;;;;;;50.50;6.35;100224.00;109774;1277;22018;-85
2023/10/15 10:23:59;;;;;;;7.70;3.40;;;;;;;50.79;6.34;100220.89;110573;1244;21961;-86
2023/10/15 10:27:21;;;;;;;7.60;4.10;;;;;;;51.18;6.17;100215.70;111909;1253;21788;-84
2023/10/15 10:30:29;;;;;;;11.30;5.20;;;;;;;51.09;6.04;100213.81;110365;1270;21958;-85
2023/10/15 10:33:30;;;;;;;7.30;4.50;;;;;;;50.95;5.90;100211.35;110232;1271;22514;-86
2023/10/15 10:36:19;;;;;;;8.50;3.80;;;;;;;50.69;6.03;100202.75;109923;1271;21977;-86
2023/10/15 10:39:13;;;;;;;10.30;4.40;;;;;;;50.42;6.14;100203.34;109904;1271;22513;-87
2023/10/15 10:42:03;;;;;;;10.90;4.60;;;;;;;50.37;6.09;100198.29;110213;1271;22526;-89
2023/10/15 10:45:07;;;;;;;10.10;4.20;;;;;;;50.60;6.20;100195.50;110059;1271;22009;-90
2023/10/15 10:47:50;;;;;;;12.80;4.00;;;;;;;50.55;6.04;100193.06;110016;1266;21991;-86
2023/10/15 10:51:08;;;;;;;6.50;3.20;;;;;;;50.16;6.16;100199.64;110388;1266;22153;-84
2023/10/15 10:53:58;;;;;;;8.70;3.40;;;;;;;50.07;6.12;100197.20;110513;1266;21976;-86
2023/10/15 10:57:07;;;;;;;9.80;3.90;;;;;;;50.05;6.31;100194.30;110594;1266;22982;-82
2023/10/15 10:59:42;;;;;;;13.30;8.60;;;;;;;50.51;6.26;100190.87;110497;1267;21975;-87
2023/10/15 11:02:17;;;;;;;15.70;4.60;;;;;;;50.41;6.21;100195.35;109511;1272;21976;-83
2023/10/15 11:05:00;;;;;;;12.50;4.00;;;;;;;50.15;6.15;100196.02;109315;1278;22006;-87
2023/10/15 11:07:36;;;;;;;9.30;3.70;;;;;;;49.95;6.24;100195.45;109459;1274;22232;-87
2023/10/15 11:10:11;;;;;;;9.10;4.40;;;;;;;49.86;6.13;100197.40;109276;1276;21997;-87
2023/10/15 11:12:54;;;;;;;10.40;3.30;;;;;;;50.05;6.27;100196.59;108990;1281;23618;-87
2023/10/15 11:15:35;;;;;;;9.60;3.10;;;;;;;50.11;6.18;100193.64;109001;1281;22002;-86
2023/10/15 11:18:34;;;;;;;11.90;3.70;;;;;;;49.97;6.08;100198.36;109061;1281;22004;-85
2023/10/15 11:21:23;;;;;;;6.60;3.20;;;;;;;49.99;6.00;100195.13;109034;1278;22176;-87
2023/10/15 11:24:12;;;;;;;9.60;4.30;;;;;;;49.90;6.04;100194.28;108954;1285;23345;-87
2023/10/15 11:27:00;;;;;;;10.20;4.10;;;;;;;49.75;6.09;100192.25;108939;1285;21973;-86
2023/10/15 11:30:21;;;;;;;12.80;3.40;;;;;;;49.84;6.17;100190.92;108968;1285;22204;-88
2023/10/15 11:37:09;;;;;;;8.00;3.60;;;;;;;49.79;6.00;100181.65;108623;1288;22082;-87
2023/10/15 11:39:51;;;;;;;;;;;;;;;49.58;6.17;100182.48;108887;1288;22574;-87
2023/10/15 11:42:21;;;;;;;7.70;3.70;;;;;;;49.90;5.90;100179.29;108560;1290;22011;-87
2023/10/15 11:45:16;;;;;;;8.30;3.60;;;;;;;49.73;6.27;100173.40;108801;1290;22461;-89
2023/10/15 11:48:00;;;;;;;8.80;3.40;;;;;;;49.86;6.26;100178.94;110291;1253;21970;-86
2023/10/15 11:51:18;;;;;;;8.30;3.00;;;;;;;50.06;6.13;100177.89;111866;1254;21966;-90
2023/10/15 11:58:10;;;;;;;7.10;3.30;;;;;;;50.29;5.86;100166.63;98476;1255;21971;-87
2023/10/15 12:00:56;;;;;;;9.90;3.80;;;;;;;50.24;5.93;100174.43;111825;1250;21969;-88
2023/10/15 12:04:51;;;;;;;8.50;4.20;;;;;;;50.35;5.86;100175.77;111587;1251;21926;-88
2023/10/15 12:07:49;;;;;;;11.90;3.90;;;;;;;50.17;5.96;100175.11;111352;1251;21980;-88
2023/10/15 12:10:51;;;;;;;8.50;3.30;;;;;;;50.27;5.89;100172.96;110904;1265;22381;-88
2023/10/15 12:13:23;;;;;;;8.40;2.90;;;;;;;50.14;6.02;100181.48;110494;1265;21996;-87
2023/10/15 12:16:10;;;;;;;7.60;3.20;;;;;;;49.99;6.07;100180.40;110790;1265;22017;-87
2023/10/15 12:18:49;;;;;;;10.20;3.10;;;;;;;50.08;5.98;100179.30;110311;1265;21901;-87
2023/10/15 12:21:28;;;;;;;8.90;3.30;;;;;;;50.08;5.98;100175.99;110023;1271;22886;-87
2023/10/15 12:24:13;;;;;;;6.90;2.80;;;;;;;50.25;6.14;100171.58;109297;1279;22037;-85
2023/10/15 12:26:55;;;;;;;9.00;3.60;;;;;;;50.37;6.07;100169.90;109216;1279;24011;-86
2023/10/15 12:29:31;;;;;;;9.20;3.80;;;;;;;50.35;6.17;100166.70;109238;1277;22027;-86
2023/10/15 12:32:10;;;;;;;9.30;4.20;;;;;;;50.37;6.19;100163.69;109200;1282;22921;-85
2023/10/15 12:34:50;;;;;;;8.80;4.40;;;;;;;50.37;6.29;100165.11;109457;1281;21968;-87
2023/10/15 12:37:32;;;;;;;13.70;4.30;;;;;;;50.42;5.95;100164.19;109298;1282;21886;-88
2023/10/15 12:40:23;;;;;;;11.00;3.70;;;;;;;50.48;5.97;100161.71;109741;1276;21989;-87
2023/10/15 12:42:58;;;;;;;13.20;3.00;;;;;;;50.69;6.03;100158.26;109407;1277;23283;-86
2023/10/15 12:45:35;;;;;;;8.90;3.20;;;;;;;50.77;5.87;100154.37;109631;1277;22713;-86
2023/10/15 12:48:18;;;;;;;9.80;3.40;;;;;;;50.78;5.92;100145.60;109721;1264;21973;-89
2023/10/15 12:50:52;;;;;;;9.40;3.40;;;;;;;50.70;5.86;100146.62;109139;1282;22012;-87
2023/10/15 12:53:28;;;;;;;7.40;3.40;;;;;;;50.52;5.68;100147.84;109049;1281;22011;-86
2023/10/15 12:56:05;;;;;;;;;;;;;;;50.58;5.88;100148.59;109118;1279;22006;-85
2023/10/15 12:58:41;;;;;;;10.80;3.40;;;;;;;50.80;5.61;100145.25;109228;1279;22182;-87
2023/10/15 13:01:26;;;;;;;6.60;2.70;;;;;;;50.31;5.80;100145.74;109336;1272;22013;-85
2023/10/15 13:04:08;;;;;;;9.90;3.20;;;;;;;49.97;5.87;100146.30;109240;1279;22293;-84
2023/10/15 13:07:19;;;;;;;9.20;7.30;;;;;;;49.93;5.98;100149.93;109119;1279;22250;-88
2023/10/15 13:10:25;;;;;;;9.20;3.50;;;;;;;49.76;5.96;100151.69;109415;1273;23706;-89
2023/10/15 13:13:08;;;;;;;6.20;3.00;;;;;;;49.88;5.81;100149.55;109330;1279;22000;-89
2023/10/15 13:15:56;;;;;;;7.80;3.00;;;;;;;50.02;5.90;100152.80;109385;1279;22016;-88
2023/10/15 13:18:38;;;;;;;10.30;2.90;;;;;;;49.93;5.99;100158.12;108909;1285;22015;-88
2023/10/15 13:21:18;;;;;;;8.70;2.80;;;;;;;49.90;5.96;100162.11;108581;1285;23100;-89
2023/10/15 13:24:01;;;;;;;5.90;2.50;;;;;;;49.97;5.81;100162.23;108941;1283;22298;-90
2023/10/15 13:26:35;;;;;;;9.70;2.40;;;;;;;49.82;5.80;100162.02;108825;1287;22018;-89
2023/10/15 13:29:22;;;;;;;8.00;2.40;;;;;;;49.93;5.98;100164.06;109143;1280;22005;-91
2023/10/15 13:32:02;;;;;;;7.00;2.60;;;;;;;50.09;5.81;100164.84;109388;1282;22016;-88
2023/10/15 13:35:22;;;;;;;7.20;2.90;;;;;;;50.06;5.94;100156.30;109458;1282;22025;-90
2023/10/15 13:38:03;;;;;;;8.40;2.70;;;;;;;50.10;5.75;100149.04;109656;1279;23628;-87
2023/10/15 13:40:48;;;;;;;7.10;3.30;;;;;;;50.01;5.83;100143.77;110135;1275;21974;-88
2023/10/15 13:43:46;;;;;;;4.60;2.60;;;;;;;50.06;6.13;100147.04;110757;1260;22216;-87
2023/10/15 13:46:25;;;;;;;6.90;2.70;;;;;;;50.05;6.05;100142.48;111008;1269;21969;-90
2023/10/15 13:49:44;;;;;;;8.50;5.40;;;;;;;50.10;5.95;100143.16;111104;1264;21986;-87
2023/10/15 13:52:26;;;;;;;5.10;2.50;;;;;;;49.91;5.90;100145.10;110675;1267;22988;-88
2023/10/15 13:54:58;;;;;;;7.80;3.00;;;;;;;49.63;5.94;100148.42;110494;1267;22069;-88
2023/10/15 13:57:34;;;;;;;7.50;3.30;;;;;;;49.36;5.94;100145.12;110607;1267;21973;-88
2023/10/15 14:00:19;;;;;;;7.30;2.90;;;;;;;49.60;5.99;100150.89;110422;1267;21971;-88
2023/10/15 14:03:04;;;;;;;8.00;3.10;;;;;;;49.74;5.83;100148.91;110134;1271;21957;-90
2023/10/15 14:06:18;;;;;;;11.20;3.00;;;;;;;49.81;5.87;100154.08;109591;1268;23615;-89
2023/10/15 14:09:42;;;;;;;7.10;3.20;;;;;;;49.89;5.79;100151.39;109964;1271;21998;-88
2023/10/15 14:12:32;;;;;;;7.50;3.10;;;;;;;49.73;5.86;100150.55;109448;1274;24335;-89
2023/10/15 14:15:21;;;;;;;9.10;3.40;;;;;;;49.48;5.87;100151.36;109471;1274;22847;-88
2023/10/15 14:18:54;;;;;;;7.90;3.50;;;;;;;49.27;6.05;100151.84;109422;1274;22407;-85
2023/10/15 14:21:56;;;;;;;7.40;3.70;;;;;;;49.24;5.83;100156.14;109290;1277;22019;-88
2023/10/15 14:24:54;;;;;;;9.70;4.50;;;;;;;48.99;6.12;100159.04;109291;1276;22064;-89
2023/10/15 14:27:30;;;;;;;7.60;2.90;;;;;;;48.78;6.18;100165.27;109233;1274;23715;-89
2023/10/15 14:30:07;;;;;;;10.90;3.60;;;;;;;48.85;6.23;100165.80;109195;1277;23087;-87
2023/10/15 14:32:42;;;;;;;8.70;3.70;;;;;;;49.06;6.13;100167.71;109080;1277;22002;-89
2023/10/15 14:35:22;;;;;;;6.90;3.00;;;;;;;49.07;6.22;100165.29;109131;1277;22061;-88
2023/10/15 14:38:02;;;;;;;8.30;3.80;;;;;;;48.89;6.40;100161.98;109446;1274;21999;-85
2023/10/15 14:40:44;;;;;;;9.60;4.60;;;;;;;48.93;6.42;100160.70;109295;1277;21961;-89
2023/10/15 14:43:27;;;;;;;9.10;4.30;;;;;;;49.17;6.53;100157.28;109140;1277;22031;-91
2023/10/15 14:46:11;;;;;;;7.80;4.30;;;;;;;49.23;6.56;100155.31;109062;1277;22228;-90
2023/10/15 14:48:48;;;;;;;7.60;4.40;;;;;;;49.37;6.61;100151.09;109715;1273;22001;-88
2023/10/15 14:51:48;;;;;;;11.80;4.80;;;;;;;49.36;6.52;100152.34;109710;1272;22001;-90
2023/10/15 14:54:35;;;;;;;9.50;4.00;;;;;;;49.45;6.51;100152.80;109710;1276;23609;-89
2023/10/15 14:57:28;;;;;;;7.90;4.70;;;;;;;49.38;6.48;100158.95;109769;1268;21974;-90
2023/10/15 15:00:26;;;;;;;11.50;4.70;;;;;;;49.63;6.42;100158.24;110239;1268;23757;-87
2023/10/15 15:03:24;;;;;;;6.80;4.30;;;;;;;49.53;6.45;100161.95;110533;1267;22118;-88
2023/10/15 15:06:22;;;;;;;;;;;;;;;;;;;;;
2023/10/15 15:09:03;;;;;;;8.50;4.00;;;;;;;49.42;6.42;100164.83;110568;1267;21969;-87
2023/10/15 15:11:53;;;;;;;11.00;6.00;;;;;;;49.16;6.37;100167.55;110319;1267;21984;-92
2023/10/15 15:14:28;;;;;;;6.40;3.40;;;;;;;49.08;6.43;100168.77;109914;1273;22002;-89
2023/10/15 15:17:23;;;;;;;4.40;2.40;;;;;;;49.09;6.25;100176.30;109869;1273;22458;-91
2023/10/15 15:21:25;;;;;;;7.00;2.80;;;;;;;49.09;6.20;100178.99;110146;1275;22005;-92
2023/10/15 15:24:42;;;;;;;7.30;3.30;;;;;;;49.18;6.26;100187.93;109946;1275;21987;-90
2023/10/15 15:27:47;;;;;;;6.10;2.60;;;;;;;48.92;6.27;100193.52;109740;1275;21846;-91
2023/10/15 15:31:24;;;;;;;7.20;3.80;;;;;;;48.72;6.22;100197.86;110129;1275;21996;-90
2023/10/15 15:34:15;;;;;;;9.20;4.20;;;;;;;48.72;6.17;100199.56;109956;1275;21990;-88
2023/10/15 15:37:07;;;;;;;7.40;4.30;;;;;;;48.55;6.24;100202.92;109684;1268;22399;-91
2023/10/15 15:40:26;;;;;;;11.50;7.30;;;;;;;48.37;6.30;100206.96;109396;1274;22014;-91
2023/10/15 15:43:27;;;;;;;18.90;11.70;;;;;;;48.42;6.15;100205.13;109776;1273;22009;-91
2023/10/15 15:46:47;;;;;;;11.90;6.80;;;;;;;48.40;6.07;100204.72;109873;1276;22160;-90
2023/10/15 15:49:47;;;;;;;5.90;3.80;;;;;;;48.37;6.25;100211.35;109455;1276;22489;-89
2023/10/15 15:52:36;;;;;;;7.50;3.70;;;;;;;48.17;6.44;100217.52;109459;1273;22007;-89
2023/10/15 15:55:32;;;;;;;9.00;5.50;;;;;;;48.20;6.28;100222.70;109695;1267;21999;-89
2023/10/15 15:58:09;;;;;;;6.80;3.60;;;;;;;47.94;6.35;100230.98;109798;1268;22015;-87
2023/10/15 16:00:53;;;;;;;8.40;3.90;;;;;;;47.79;6.44;100239.33;110081;1268;21962;-89
2023/10/15 16:03:29;;;;;;;12.90;5.00;;;;;;;47.66;6.76;100243.81;110132;1268;22009;-90
2023/10/15 16:06:44;;;;;;;8.50;3.70;;;;;;;47.66;6.61;100246.89;109995;1273;21944;-90
2023/10/15 16:09:41;;;;;;;;;;;;;;;;;;;;;
2023/10/15 16:12:30;;;;;;;10.20;3.90;;;;;;;47.52;6.76;100256.69;109840;1273;21995;-91
2023/10/15 16:16:00;;;;;;;11.40;4.20;;;;;;;47.65;6.57;100260.48;109958;1273;22430;-89
2023/10/15 16:18:38;;;;;;;12.70;5.50;;;;;;;47.61;6.90;100265.35;109940;1273;22138;-89
2023/10/15 16:21:14;;;;;;;8.80;5.00;;;;;;;47.51;6.93;100269.04;109934;1273;22126;-85
2023/10/15 16:23:58;;;;;;;9.20;5.30;;;;;;;47.38;6.91;100271.61;109446;1273;22000;-80